Aérodrome :
LOGIN :

S'inscrire | Disclaimer

   EN    FR    IT 

 










Légende :    VFR   VFR Marginal   IFR   IFR Intensif   IFR Très Intensif
Visi : 
Plafond : 
>= 8 km
>= 3000ft
5 à 8 km
1000 à 3000 ft
1500m à 5 km
500 à 1000 ft
800 à 1500m
200 à 500 ft
< 800m
< 200 ft
Symboles :   Orages  Brouillard  Fortes neiges  Fortes précipitations  Vent > 20 kt
SIGMETs :   Divers  Orages  Givrage  Turbulence  Onde Orograph.  Cendres Volcan.






- Altitude de l'aérodrome : 412 ft
- Code IATA : ORE


LFOJ - Orleans

DERNIER METAR :
  • 161830Z AUTO 21010KT 3900 DZ BR OVC004 02/02 Q1020

METARs EXPIRÉS :
  • 161800Z AUTO 21014KT 4100 DZ BR OVC004 02/01 Q1020
  • 161730Z AUTO 20013KT 3700 -RA BR OVC004 01/01 Q1020 NOSIG
  • 161700Z AUTO 20011KT 6000 OVC004/// ///TCU 01/00 Q1020 TEMPO 20015G25KT 4000 -RA BKN008 OVC013
  • 161630Z AUTO 19011KT 4900 RA BR OVC004 01/00 Q1020 TEMPO 20015G25KT NSW BKN008 OVC013
  • 161600Z AUTO 19011KT 6000 -RA BKN006/// OVC011/// ///TCU 00/M00 Q1020 TEMPO 20015G25KT 4000 -RA BKN008 OVC013

TAF AMD TAF LFOJ
Valide du 16 à 17h jusqu'au 17 à 15h UTC


161710Z 1617/1715 18013KT 7000 BKN004 OVC008 TX07/1715Z TN01/1618Z
TEMPO 1617/1703 4000 -DZ BR
BECMG 1703/1704 24008KT BKN025 BKN035
PROB40
TEMPO 1703/1707 4000 -DZ BR BKN004 BKN010
BECMG 1712/1713 32012KT



MET'MAP, la Météo Aéronautique d'un coup d'oeil ! - Copyright ORBIFLY Décembre 2007 - Disclaimer

ORBIFLY MET'MAP TEAM :

Programmation & Développement : Alexandra Zaïnal
Sur une idée originale de : Baudouin d'Aumeries
Assistance à la programmation : Marc-Olivier Méhu
Soutien technique & logistique : Manuel Goepfert

Contact : metmap@orbifly.com




SOURCES & CREDITS :

   NOAA